This is the latest recevied weather packets stored in our database for station/object WP3OF-1. If no packets are shown the sender has not sent any weather packets the latest 1 day(s).
| Time | Temp. | Humidity | Pressure | Rain* | Wind** | Luminosity | Snow |
|---|---|---|---|---|---|---|---|
| 1778083199 | 29.44° C | 69% | 1019.6 hPa | 0 mm | - | - | - |
| 1778082897 | 29.44° C | 72% | 1019.5 hPa | 0 mm | - | - | - |
| 1778081789 | 29.44° C | 70% | 1019.7 hPa | 0 mm | - | - | - |
| 1778081486 | 28.33° C | 72% | 1019.7 hPa | 0 mm | - | - | - |
| 1778081183 | 28.89° C | 72% | 1019.8 hPa | 0 mm | - | - | - |
| 1778078760 | 28.89° C | 74% | 1019.9 hPa | 0 mm | - | - | - |
| 1778078457 | 28.33° C | 74% | 1019.8 hPa | 0 mm | - | - | - |
| 1778078155 | 28.33° C | 73% | 1019.9 hPa | 0 mm | - | - | - |
| 1778077853 | 28.33° C | 74% | 1019.8 hPa | 0 mm | - | - | - |
| 1778076946 | 28.33° C | 72% | 1019.9 hPa | 0 mm | - | - | - |
| 1778076644 | 28.33° C | 72% | 1020.1 hPa | 0 mm | - | - | - |
| 1778075128 | 28.33° C | 72% | 1019.8 hPa | 0 mm | - | - | - |
| 1778073310 | 27.78° C | 76% | 1019.6 hPa | 0 mm | - | - | - |
| 1778072703 | 28.33° C | 72% | 1019.8 hPa | 0 mm | - | - | - |
| 1778071796 | 27.78° C | 75% | 1019.3 hPa | 0 mm | - | - | - |
| 1778069375 | 27.78° C | 76% | 1019.1 hPa | 0 mm | - | - | - |
| 1778069073 | 27.22° C | 77% | 1019.2 hPa | 0 mm | - | - | - |
| 1778068770 | 27.22° C | 79% | 1019.2 hPa | 0 mm | - | - | - |
| 1778068468 | 26.67° C | 82% | 1019.2 hPa | 0 mm | - | - | - |
| 1778068166 | 27.22° C | 80% | 1019.1 hPa | 0 mm | - | - | - |
| 1778067259 | 26.67° C | 78% | 1018.9 hPa | 0 mm | - | - | - |
| 1778065443 | 26.67° C | 81% | 1018.7 hPa | 0 mm | - | - | - |
| 1778064231 | 25.56° C | 85% | 1018.6 hPa | 0 mm | - | - | - |
| 1778063626 | 25.56° C | 86% | 1018.5 hPa | 0 mm | - | - | - |
| 1778062717 | 25° C | 86% | 1018.1 hPa | 0 mm | - | - | - |
* Rain latest hour (hover to see other rain measurements)
** Current wind speed in m/s (hover to see current wind gust speed)